Terminal Aerodrome Forecast
Issued by NWS

Home | Current Version | Previous Version | Text Only | Print | Product List | Glossary On
Versions: 1 2 3 4 5 6 7 8 9 10 11 12 13 14 15
000
FTUS45 KVEF 260000 AAA
TAFVGT
TAF AMD
KVGT 260020Z 2600/2624 21010G18KT P6SM SCT110 SCT150 BKN200
     FM260400 20008KT P6SM SCT150 BKN200
     FM261800 15008KT P6SM SCT100 SCT150
     FM262100 19010KT P6SM SCT100 SCT150=

USA.gov is the U.S. government's official web portal to all federal, state and local government web resources and services.